sensor_id;sensor_type;location;lat;lon;timestamp;P1;durP1;ratioP1;P2;durP2;ratioP2
27999;SDS011;15328;50.860;10.562;2023-12-07T00:01:28;10.07;;;5.93;;
27999;SDS011;15328;50.860;10.562;2023-12-07T00:06:28;9.07;;;6.20;;
27999;SDS011;15328;50.860;10.562;2023-12-07T00:11:29;9.70;;;6.03;;
27999;SDS011;15328;50.860;10.562;2023-12-07T00:16:29;8.40;;;5.40;;
27999;SDS011;15328;50.860;10.562;2023-12-07T00:21:30;10.25;;;5.80;;
27999;SDS011;15328;50.860;10.562;2023-12-07T00:26:30;8.47;;;5.20;;
27999;SDS011;15328;50.860;10.562;2023-12-07T00:31:30;10.77;;;5.67;;
27999;SDS011;15328;50.860;10.562;2023-12-07T00:36:31;7.60;;;5.30;;
27999;SDS011;15328;50.860;10.562;2023-12-07T00:41:32;10.33;;;6.57;;
27999;SDS011;15328;50.860;10.562;2023-12-07T00:46:32;10.75;;;6.55;;
27999;SDS011;15328;50.860;10.562;2023-12-07T00:51:32;10.70;;;6.45;;
27999;SDS011;15328;50.860;10.562;2023-12-07T00:56:33;9.15;;;6.10;;
27999;SDS011;15328;50.860;10.562;2023-12-07T01:01:34;10.82;;;6.25;;
27999;SDS011;15328;50.860;10.562;2023-12-07T01:06:34;9.17;;;6.20;;
27999;SDS011;15328;50.860;10.562;2023-12-07T01:11:34;11.30;;;6.15;;
27999;SDS011;15328;50.860;10.562;2023-12-07T01:16:35;7.75;;;5.40;;
27999;SDS011;15328;50.860;10.562;2023-12-07T01:21:35;9.45;;;5.60;;
27999;SDS011;15328;50.860;10.562;2023-12-07T01:26:42;6.90;;;4.55;;
27999;SDS011;15328;50.860;10.562;2023-12-07T01:31:43;7.80;;;5.13;;
27999;SDS011;15328;50.860;10.562;2023-12-07T01:36:44;7.55;;;5.45;;
27999;SDS011;15328;50.860;10.562;2023-12-07T01:41:44;8.70;;;5.45;;
27999;SDS011;15328;50.860;10.562;2023-12-07T01:46:44;8.63;;;5.35;;
27999;SDS011;15328;50.860;10.562;2023-12-07T01:51:45;8.52;;;5.10;;
27999;SDS011;15328;50.860;10.562;2023-12-07T01:56:47;8.75;;;6.00;;
27999;SDS011;15328;50.860;10.562;2023-12-07T02:01:47;12.32;;;7.35;;
27999;SDS011;15328;50.860;10.562;2023-12-07T02:06:48;10.68;;;7.07;;
27999;SDS011;15328;50.860;10.562;2023-12-07T02:11:48;9.43;;;6.90;;
27999;SDS011;15328;50.860;10.562;2023-12-07T02:16:50;10.63;;;6.80;;
27999;SDS011;15328;50.860;10.562;2023-12-07T02:21:57;10.13;;;5.30;;
27999;SDS011;15328;50.860;10.562;2023-12-07T02:27:07;7.28;;;4.80;;
27999;SDS011;15328;50.860;10.562;2023-12-07T02:32:07;10.27;;;5.75;;
27999;SDS011;15328;50.860;10.562;2023-12-07T02:37:07;10.82;;;5.38;;
27999;SDS011;15328;50.860;10.562;2023-12-07T02:42:09;8.55;;;5.22;;
27999;SDS011;15328;50.860;10.562;2023-12-07T02:47:11;7.97;;;5.30;;
27999;SDS011;15328;50.860;10.562;2023-12-07T02:52:11;7.25;;;5.15;;
27999;SDS011;15328;50.860;10.562;2023-12-07T02:57:13;8.48;;;5.50;;
27999;SDS011;15328;50.860;10.562;2023-12-07T03:02:14;7.05;;;5.10;;
27999;SDS011;15328;50.860;10.562;2023-12-07T03:07:15;10.80;;;6.60;;
27999;SDS011;15328;50.860;10.562;2023-12-07T03:12:15;10.20;;;6.20;;
27999;SDS011;15328;50.860;10.562;2023-12-07T03:17:15;10.65;;;7.00;;
27999;SDS011;15328;50.860;10.562;2023-12-07T03:22:16;13.63;;;8.20;;
27999;SDS011;15328;50.860;10.562;2023-12-07T03:27:16;13.55;;;8.40;;
27999;SDS011;15328;50.860;10.562;2023-12-07T03:32:17;14.35;;;8.95;;
27999;SDS011;15328;50.860;10.562;2023-12-07T03:37:17;12.47;;;8.27;;
27999;SDS011;15328;50.860;10.562;2023-12-07T03:42:17;12.77;;;8.20;;
27999;SDS011;15328;50.860;10.562;2023-12-07T03:47:18;11.88;;;7.78;;
27999;SDS011;15328;50.860;10.562;2023-12-07T03:52:18;9.98;;;7.28;;
27999;SDS011;15328;50.860;10.562;2023-12-07T03:57:19;11.13;;;7.40;;
27999;SDS011;15328;50.860;10.562;2023-12-07T04:02:19;11.77;;;7.47;;
27999;SDS011;15328;50.860;10.562;2023-12-07T04:07:19;11.07;;;7.10;;
27999;SDS011;15328;50.860;10.562;2023-12-07T04:12:20;12.52;;;7.70;;
27999;SDS011;15328;50.860;10.562;2023-12-07T04:17:20;10.52;;;7.25;;
27999;SDS011;15328;50.860;10.562;2023-12-07T04:22:21;10.63;;;6.85;;
27999;SDS011;15328;50.860;10.562;2023-12-07T04:27:21;10.70;;;7.55;;
27999;SDS011;15328;50.860;10.562;2023-12-07T04:32:22;11.80;;;7.20;;
27999;SDS011;15328;50.860;10.562;2023-12-07T04:37:22;12.68;;;7.88;;
27999;SDS011;15328;50.860;10.562;2023-12-07T04:42:23;10.02;;;7.20;;
27999;SDS011;15328;50.860;10.562;2023-12-07T04:47:24;10.07;;;7.10;;
27999;SDS011;15328;50.860;10.562;2023-12-07T04:52:24;11.73;;;7.53;;
27999;SDS011;15328;50.860;10.562;2023-12-07T04:57:24;11.60;;;7.63;;
27999;SDS011;15328;50.860;10.562;2023-12-07T05:02:25;10.63;;;7.50;;
27999;SDS011;15328;50.860;10.562;2023-12-07T05:07:27;11.05;;;6.80;;
27999;SDS011;15328;50.860;10.562;2023-12-07T05:12:28;11.73;;;7.47;;
27999;SDS011;15328;50.860;10.562;2023-12-07T05:17:28;10.40;;;7.20;;
27999;SDS011;15328;50.860;10.562;2023-12-07T05:22:29;11.75;;;7.35;;
27999;SDS011;15328;50.860;10.562;2023-12-07T05:27:29;11.75;;;7.15;;
27999;SDS011;15328;50.860;10.562;2023-12-07T05:32:29;10.65;;;7.28;;
27999;SDS011;15328;50.860;10.562;2023-12-07T05:37:30;10.57;;;7.28;;
27999;SDS011;15328;50.860;10.562;2023-12-07T05:42:30;11.48;;;7.53;;
27999;SDS011;15328;50.860;10.562;2023-12-07T05:47:30;10.73;;;7.38;;
27999;SDS011;15328;50.860;10.562;2023-12-07T05:52:31;11.40;;;8.13;;
27999;SDS011;15328;50.860;10.562;2023-12-07T05:57:31;14.23;;;8.57;;
27999;SDS011;15328;50.860;10.562;2023-12-07T06:02:32;10.90;;;7.45;;
27999;SDS011;15328;50.860;10.562;2023-12-07T06:07:32;9.10;;;6.78;;
27999;SDS011;15328;50.860;10.562;2023-12-07T06:12:34;10.73;;;6.88;;
27999;SDS011;15328;50.860;10.562;2023-12-07T06:17:34;14.02;;;7.00;;
27999;SDS011;15328;50.860;10.562;2023-12-07T06:22:35;9.60;;;6.22;;
27999;SDS011;15328;50.860;10.562;2023-12-07T06:27:35;10.52;;;6.57;;
27999;SDS011;15328;50.860;10.562;2023-12-07T06:32:36;10.77;;;6.45;;
27999;SDS011;15328;50.860;10.562;2023-12-07T06:37:36;10.55;;;6.30;;
27999;SDS011;15328;50.860;10.562;2023-12-07T06:42:37;9.70;;;6.33;;
27999;SDS011;15328;50.860;10.562;2023-12-07T06:47:38;9.82;;;6.00;;
27999;SDS011;15328;50.860;10.562;2023-12-07T06:52:39;10.88;;;6.25;;
27999;SDS011;15328;50.860;10.562;2023-12-07T06:57:39;10.40;;;6.95;;
27999;SDS011;15328;50.860;10.562;2023-12-07T07:02:40;9.88;;;6.45;;
27999;SDS011;15328;50.860;10.562;2023-12-07T07:07:40;12.20;;;7.80;;
27999;SDS011;15328;50.860;10.562;2023-12-07T07:12:41;13.65;;;7.78;;
27999;SDS011;15328;50.860;10.562;2023-12-07T07:17:41;10.20;;;7.40;;
27999;SDS011;15328;50.860;10.562;2023-12-07T07:22:42;11.23;;;7.32;;
27999;SDS011;15328;50.860;10.562;2023-12-07T07:27:42;11.90;;;7.65;;
27999;SDS011;15328;50.860;10.562;2023-12-07T07:32:43;12.25;;;7.20;;
27999;SDS011;15328;50.860;10.562;2023-12-07T07:37:43;12.30;;;7.97;;
27999;SDS011;15328;50.860;10.562;2023-12-07T07:42:43;11.93;;;7.90;;
27999;SDS011;15328;50.860;10.562;2023-12-07T07:47:44;12.07;;;8.10;;
27999;SDS011;15328;50.860;10.562;2023-12-07T07:52:44;12.00;;;7.80;;
27999;SDS011;15328;50.860;10.562;2023-12-07T07:57:45;14.70;;;8.23;;
27999;SDS011;15328;50.860;10.562;2023-12-07T08:02:46;12.43;;;8.32;;
27999;SDS011;15328;50.860;10.562;2023-12-07T08:07:46;14.43;;;9.20;;
27999;SDS011;15328;50.860;10.562;2023-12-07T08:12:47;13.57;;;9.02;;
27999;SDS011;15328;50.860;10.562;2023-12-07T08:17:47;15.43;;;9.70;;
27999;SDS011;15328;50.860;10.562;2023-12-07T08:22:47;15.23;;;10.10;;
27999;SDS011;15328;50.860;10.562;2023-12-07T08:27:48;14.67;;;9.10;;
27999;SDS011;15328;50.860;10.562;2023-12-07T08:32:48;15.52;;;9.13;;
27999;SDS011;15328;50.860;10.562;2023-12-07T08:37:48;13.65;;;9.23;;
27999;SDS011;15328;50.860;10.562;2023-12-07T08:42:49;16.40;;;9.10;;
27999;SDS011;15328;50.860;10.562;2023-12-07T08:47:49;16.55;;;9.20;;
27999;SDS011;15328;50.860;10.562;2023-12-07T08:52:49;15.40;;;9.65;;
27999;SDS011;15328;50.860;10.562;2023-12-07T08:57:50;15.47;;;9.70;;
27999;SDS011;15328;50.860;10.562;2023-12-07T09:02:53;14.45;;;9.35;;
27999;SDS011;15328;50.860;10.562;2023-12-07T09:07:53;19.10;;;10.43;;
27999;SDS011;15328;50.860;10.562;2023-12-07T09:12:54;17.42;;;9.80;;
27999;SDS011;15328;50.860;10.562;2023-12-07T09:17:54;16.77;;;10.38;;
27999;SDS011;15328;50.860;10.562;2023-12-07T09:22:55;17.37;;;10.07;;
27999;SDS011;15328;50.860;10.562;2023-12-07T09:27:57;18.40;;;10.45;;
27999;SDS011;15328;50.860;10.562;2023-12-07T09:32:59;17.38;;;10.77;;
27999;SDS011;15328;50.860;10.562;2023-12-07T09:38:02;16.30;;;10.25;;
27999;SDS011;15328;50.860;10.562;2023-12-07T09:43:03;18.20;;;10.48;;
27999;SDS011;15328;50.860;10.562;2023-12-07T09:48:03;20.25;;;10.68;;
27999;SDS011;15328;50.860;10.562;2023-12-07T09:53:04;16.50;;;10.07;;
27999;SDS011;15328;50.860;10.562;2023-12-07T09:58:07;18.58;;;10.88;;
27999;SDS011;15328;50.860;10.562;2023-12-07T10:03:09;15.35;;;9.77;;
27999;SDS011;15328;50.860;10.562;2023-12-07T10:08:28;13.70;;;9.30;;
27999;SDS011;15328;50.860;10.562;2023-12-07T10:13:30;14.80;;;9.50;;
27999;SDS011;15328;50.860;10.562;2023-12-07T10:18:31;15.30;;;9.68;;
27999;SDS011;15328;50.860;10.562;2023-12-07T10:23:31;14.13;;;9.30;;
27999;SDS011;15328;50.860;10.562;2023-12-07T10:28:35;15.77;;;8.93;;
27999;SDS011;15328;50.860;10.562;2023-12-07T10:33:36;21.85;;;12.18;;
27999;SDS011;15328;50.860;10.562;2023-12-07T10:38:37;21.40;;;12.23;;
27999;SDS011;15328;50.860;10.562;2023-12-07T10:43:45;15.77;;;10.43;;
27999;SDS011;15328;50.860;10.562;2023-12-07T10:49:04;14.23;;;9.55;;
27999;SDS011;15328;50.860;10.562;2023-12-07T10:54:07;15.60;;;9.65;;
27999;SDS011;15328;50.860;10.562;2023-12-07T10:59:14;13.60;;;9.18;;
27999;SDS011;15328;50.860;10.562;2023-12-07T11:04:16;13.43;;;8.57;;
27999;SDS011;15328;50.860;10.562;2023-12-07T11:09:19;14.48;;;9.23;;
27999;SDS011;15328;50.860;10.562;2023-12-07T11:14:22;15.05;;;9.77;;
27999;SDS011;15328;50.860;10.562;2023-12-07T11:24:33;11.50;;;7.63;;
27999;SDS011;15328;50.860;10.562;2023-12-07T11:29:33;12.00;;;7.60;;
27999;SDS011;15328;50.860;10.562;2023-12-07T11:34:35;10.60;;;6.85;;
27999;SDS011;15328;50.860;10.562;2023-12-07T11:39:39;11.00;;;6.93;;
27999;SDS011;15328;50.860;10.562;2023-12-07T11:44:47;10.15;;;6.22;;
27999;SDS011;15328;50.860;10.562;2023-12-07T11:49:52;11.02;;;6.68;;
27999;SDS011;15328;50.860;10.562;2023-12-07T11:54:52;11.43;;;7.00;;
27999;SDS011;15328;50.860;10.562;2023-12-07T11:59:53;12.68;;;6.88;;
27999;SDS011;15328;50.860;10.562;2023-12-07T12:04:53;17.23;;;8.20;;
27999;SDS011;15328;50.860;10.562;2023-12-07T12:09:54;10.52;;;6.38;;
27999;SDS011;15328;50.860;10.562;2023-12-07T12:14:54;11.27;;;7.35;;
27999;SDS011;15328;50.860;10.562;2023-12-07T12:19:55;12.10;;;7.75;;
27999;SDS011;15328;50.860;10.562;2023-12-07T12:24:55;7.25;;;5.22;;
27999;SDS011;15328;50.860;10.562;2023-12-07T12:29:56;7.10;;;4.80;;
27999;SDS011;15328;50.860;10.562;2023-12-07T12:34:58;6.40;;;4.63;;
27999;SDS011;15328;50.860;10.562;2023-12-07T12:39:58;7.22;;;5.30;;
27999;SDS011;15328;50.860;10.562;2023-12-07T12:45:07;5.47;;;4.82;;
27999;SDS011;15328;50.860;10.562;2023-12-07T12:50:09;7.03;;;5.28;;
27999;SDS011;15328;50.860;10.562;2023-12-07T12:55:30;9.80;;;6.78;;
27999;SDS011;15328;50.860;10.562;2023-12-07T13:00:33;11.38;;;7.55;;
27999;SDS011;15328;50.860;10.562;2023-12-07T13:05:34;8.77;;;5.95;;
27999;SDS011;15328;50.860;10.562;2023-12-07T13:10:34;8.77;;;5.28;;
27999;SDS011;15328;50.860;10.562;2023-12-07T13:15:35;9.90;;;5.80;;
27999;SDS011;15328;50.860;10.562;2023-12-07T13:20:36;7.85;;;5.68;;
27999;SDS011;15328;50.860;10.562;2023-12-07T13:25:36;8.63;;;5.50;;
27999;SDS011;15328;50.860;10.562;2023-12-07T13:30:36;7.97;;;5.70;;
27999;SDS011;15328;50.860;10.562;2023-12-07T13:35:37;9.07;;;6.27;;
27999;SDS011;15328;50.860;10.562;2023-12-07T13:40:37;10.07;;;6.35;;
27999;SDS011;15328;50.860;10.562;2023-12-07T13:45:38;11.90;;;6.83;;
27999;SDS011;15328;50.860;10.562;2023-12-07T13:50:38;10.38;;;6.20;;
27999;SDS011;15328;50.860;10.562;2023-12-07T13:55:39;9.90;;;6.30;;
27999;SDS011;15328;50.860;10.562;2023-12-07T14:00:40;9.30;;;6.20;;
27999;SDS011;15328;50.860;10.562;2023-12-07T14:05:45;9.52;;;6.05;;
27999;SDS011;15328;50.860;10.562;2023-12-07T14:10:46;8.77;;;5.85;;
27999;SDS011;15328;50.860;10.562;2023-12-07T14:15:47;9.32;;;5.72;;
27999;SDS011;15328;50.860;10.562;2023-12-07T14:20:47;8.73;;;5.17;;
27999;SDS011;15328;50.860;10.562;2023-12-07T14:25:48;10.65;;;6.40;;
27999;SDS011;15328;50.860;10.562;2023-12-07T14:30:51;15.90;;;10.55;;
27999;SDS011;15328;50.860;10.562;2023-12-07T14:35:56;16.33;;;9.68;;
27999;SDS011;15328;50.860;10.562;2023-12-07T14:40:56;21.65;;;12.18;;
27999;SDS011;15328;50.860;10.562;2023-12-07T14:45:57;24.13;;;13.13;;
27999;SDS011;15328;50.860;10.562;2023-12-07T14:50:58;19.42;;;10.85;;
27999;SDS011;15328;50.860;10.562;2023-12-07T14:55:59;17.60;;;10.68;;
27999;SDS011;15328;50.860;10.562;2023-12-07T15:00:59;11.95;;;7.72;;
27999;SDS011;15328;50.860;10.562;2023-12-07T15:06:00;11.00;;;7.80;;
27999;SDS011;15328;50.860;10.562;2023-12-07T15:11:01;17.38;;;9.30;;
27999;SDS011;15328;50.860;10.562;2023-12-07T15:16:01;11.82;;;7.55;;
27999;SDS011;15328;50.860;10.562;2023-12-07T15:21:04;11.73;;;7.32;;
27999;SDS011;15328;50.860;10.562;2023-12-07T15:26:04;11.80;;;7.45;;
27999;SDS011;15328;50.860;10.562;2023-12-07T15:31:05;12.95;;;7.05;;
27999;SDS011;15328;50.860;10.562;2023-12-07T15:36:07;14.13;;;8.93;;
27999;SDS011;15328;50.860;10.562;2023-12-07T15:41:07;11.02;;;6.88;;
27999;SDS011;15328;50.860;10.562;2023-12-07T15:46:08;11.05;;;7.47;;
27999;SDS011;15328;50.860;10.562;2023-12-07T15:51:09;9.93;;;6.45;;
27999;SDS011;15328;50.860;10.562;2023-12-07T15:56:10;11.32;;;7.13;;
27999;SDS011;15328;50.860;10.562;2023-12-07T16:01:11;11.02;;;6.75;;
27999;SDS011;15328;50.860;10.562;2023-12-07T16:06:11;10.55;;;6.75;;
27999;SDS011;15328;50.860;10.562;2023-12-07T16:11:12;10.68;;;6.88;;
27999;SDS011;15328;50.860;10.562;2023-12-07T16:16:12;12.60;;;8.02;;
27999;SDS011;15328;50.860;10.562;2023-12-07T16:21:12;12.50;;;7.70;;
27999;SDS011;15328;50.860;10.562;2023-12-07T16:26:13;16.58;;;10.60;;
27999;SDS011;15328;50.860;10.562;2023-12-07T16:31:13;12.32;;;7.72;;
27999;SDS011;15328;50.860;10.562;2023-12-07T16:36:15;11.68;;;6.97;;
27999;SDS011;15328;50.860;10.562;2023-12-07T16:41:16;11.05;;;7.18;;
27999;SDS011;15328;50.860;10.562;2023-12-07T16:46:18;12.02;;;7.18;;
27999;SDS011;15328;50.860;10.562;2023-12-07T16:51:18;11.55;;;7.25;;
27999;SDS011;15328;50.860;10.562;2023-12-07T16:56:19;11.43;;;6.38;;
27999;SDS011;15328;50.860;10.562;2023-12-07T17:01:20;11.77;;;7.57;;
27999;SDS011;15328;50.860;10.562;2023-12-07T17:06:21;13.38;;;8.13;;
27999;SDS011;15328;50.860;10.562;2023-12-07T17:11:21;12.60;;;7.70;;
27999;SDS011;15328;50.860;10.562;2023-12-07T17:16:22;11.40;;;6.85;;
27999;SDS011;15328;50.860;10.562;2023-12-07T17:21:23;11.00;;;7.03;;
27999;SDS011;15328;50.860;10.562;2023-12-07T17:26:24;13.68;;;8.40;;
27999;SDS011;15328;50.860;10.562;2023-12-07T17:31:25;31.55;;;17.92;;
27999;SDS011;15328;50.860;10.562;2023-12-07T17:36:25;20.08;;;12.68;;
27999;SDS011;15328;50.860;10.562;2023-12-07T17:41:27;14.43;;;8.90;;
27999;SDS011;15328;50.860;10.562;2023-12-07T17:46:28;10.65;;;6.78;;
27999;SDS011;15328;50.860;10.562;2023-12-07T17:51:28;10.15;;;6.20;;
27999;SDS011;15328;50.860;10.562;2023-12-07T17:56:29;11.50;;;6.68;;
27999;SDS011;15328;50.860;10.562;2023-12-07T18:01:30;11.60;;;7.17;;
27999;SDS011;15328;50.860;10.562;2023-12-07T18:06:30;12.65;;;6.57;;
27999;SDS011;15328;50.860;10.562;2023-12-07T18:11:30;10.75;;;6.50;;
27999;SDS011;15328;50.860;10.562;2023-12-07T18:16:31;10.77;;;6.13;;
27999;SDS011;15328;50.860;10.562;2023-12-07T18:21:31;14.52;;;6.40;;
27999;SDS011;15328;50.860;10.562;2023-12-07T18:26:32;14.02;;;7.10;;
27999;SDS011;15328;50.860;10.562;2023-12-07T18:31:35;11.73;;;7.65;;
27999;SDS011;15328;50.860;10.562;2023-12-07T18:36:35;13.63;;;7.75;;
27999;SDS011;15328;50.860;10.562;2023-12-07T18:41:35;11.02;;;6.30;;
27999;SDS011;15328;50.860;10.562;2023-12-07T18:46:36;11.00;;;6.15;;
27999;SDS011;15328;50.860;10.562;2023-12-07T18:51:36;11.75;;;7.05;;
27999;SDS011;15328;50.860;10.562;2023-12-07T18:56:37;12.63;;;6.93;;
27999;SDS011;15328;50.860;10.562;2023-12-07T19:01:37;11.30;;;6.77;;
27999;SDS011;15328;50.860;10.562;2023-12-07T19:06:38;12.65;;;7.13;;
27999;SDS011;15328;50.860;10.562;2023-12-07T19:11:40;10.75;;;7.25;;
27999;SDS011;15328;50.860;10.562;2023-12-07T19:16:42;10.10;;;6.10;;
27999;SDS011;15328;50.860;10.562;2023-12-07T19:21:43;8.60;;;5.55;;
27999;SDS011;15328;50.860;10.562;2023-12-07T19:26:44;7.97;;;5.40;;
27999;SDS011;15328;50.860;10.562;2023-12-07T19:31:44;9.90;;;5.85;;
27999;SDS011;15328;50.860;10.562;2023-12-07T19:36:45;9.77;;;5.30;;
27999;SDS011;15328;50.860;10.562;2023-12-07T19:41:45;8.40;;;4.75;;
27999;SDS011;15328;50.860;10.562;2023-12-07T19:46:46;9.32;;;5.00;;
27999;SDS011;15328;50.860;10.562;2023-12-07T19:51:46;7.78;;;4.70;;
27999;SDS011;15328;50.860;10.562;2023-12-07T19:56:46;7.38;;;4.60;;
27999;SDS011;15328;50.860;10.562;2023-12-07T20:01:47;7.20;;;4.30;;
27999;SDS011;15328;50.860;10.562;2023-12-07T20:06:47;8.45;;;4.53;;
27999;SDS011;15328;50.860;10.562;2023-12-07T20:11:48;10.52;;;5.20;;
27999;SDS011;15328;50.860;10.562;2023-12-07T20:16:48;8.20;;;5.10;;
27999;SDS011;15328;50.860;10.562;2023-12-07T20:21:51;14.20;;;6.43;;
27999;SDS011;15328;50.860;10.562;2023-12-07T20:26:51;9.40;;;5.68;;
27999;SDS011;15328;50.860;10.562;2023-12-07T20:31:52;9.32;;;5.78;;
27999;SDS011;15328;50.860;10.562;2023-12-07T20:36:52;12.43;;;6.43;;
27999;SDS011;15328;50.860;10.562;2023-12-07T20:41:53;9.30;;;6.22;;
27999;SDS011;15328;50.860;10.562;2023-12-07T20:46:53;13.68;;;7.38;;
27999;SDS011;15328;50.860;10.562;2023-12-07T20:51:54;14.07;;;7.45;;
27999;SDS011;15328;50.860;10.562;2023-12-07T20:56:54;14.17;;;7.33;;
27999;SDS011;15328;50.860;10.562;2023-12-07T21:01:55;12.82;;;6.80;;
27999;SDS011;15328;50.860;10.562;2023-12-07T21:06:56;10.57;;;6.53;;
27999;SDS011;15328;50.860;10.562;2023-12-07T21:11:56;10.85;;;5.90;;
27999;SDS011;15328;50.860;10.562;2023-12-07T21:16:57;11.32;;;6.70;;
27999;SDS011;15328;50.860;10.562;2023-12-07T21:21:58;11.15;;;6.43;;
27999;SDS011;15328;50.860;10.562;2023-12-07T21:26:58;10.80;;;6.28;;
27999;SDS011;15328;50.860;10.562;2023-12-07T21:31:59;10.02;;;5.95;;
27999;SDS011;15328;50.860;10.562;2023-12-07T21:36:59;9.60;;;5.80;;
27999;SDS011;15328;50.860;10.562;2023-12-07T21:41:59;10.18;;;5.95;;
27999;SDS011;15328;50.860;10.562;2023-12-07T21:47:00;9.35;;;5.47;;
27999;SDS011;15328;50.860;10.562;2023-12-07T21:52:05;10.68;;;6.00;;
27999;SDS011;15328;50.860;10.562;2023-12-07T21:57:06;10.38;;;6.70;;
27999;SDS011;15328;50.860;10.562;2023-12-07T22:02:06;10.15;;;6.20;;
27999;SDS011;15328;50.860;10.562;2023-12-07T22:07:06;8.03;;;5.77;;
27999;SDS011;15328;50.860;10.562;2023-12-07T22:12:07;9.48;;;5.10;;
27999;SDS011;15328;50.860;10.562;2023-12-07T22:17:07;8.70;;;4.70;;
27999;SDS011;15328;50.860;10.562;2023-12-07T22:22:08;10.82;;;5.72;;
27999;SDS011;15328;50.860;10.562;2023-12-07T22:27:08;9.07;;;5.27;;
27999;SDS011;15328;50.860;10.562;2023-12-07T22:32:09;10.02;;;5.72;;
27999;SDS011;15328;50.860;10.562;2023-12-07T22:37:09;10.65;;;5.53;;
27999;SDS011;15328;50.860;10.562;2023-12-07T22:42:10;9.98;;;5.57;;
27999;SDS011;15328;50.860;10.562;2023-12-07T22:47:10;8.13;;;4.80;;
27999;SDS011;15328;50.860;10.562;2023-12-07T22:52:10;9.07;;;5.20;;
27999;SDS011;15328;50.860;10.562;2023-12-07T22:57:10;8.93;;;5.63;;
27999;SDS011;15328;50.860;10.562;2023-12-07T23:02:11;11.68;;;7.50;;
27999;SDS011;15328;50.860;10.562;2023-12-07T23:07:12;9.73;;;6.25;;
27999;SDS011;15328;50.860;10.562;2023-12-07T23:12:12;11.57;;;6.28;;
27999;SDS011;15328;50.860;10.562;2023-12-07T23:17:12;13.52;;;7.50;;
27999;SDS011;15328;50.860;10.562;2023-12-07T23:22:13;9.75;;;6.22;;
27999;SDS011;15328;50.860;10.562;2023-12-07T23:27:13;11.60;;;5.88;;
27999;SDS011;15328;50.860;10.562;2023-12-07T23:32:14;10.98;;;6.05;;
27999;SDS011;15328;50.860;10.562;2023-12-07T23:37:14;9.07;;;4.88;;
27999;SDS011;15328;50.860;10.562;2023-12-07T23:42:14;9.32;;;4.45;;
27999;SDS011;15328;50.860;10.562;2023-12-07T23:47:15;10.07;;;4.47;;
27999;SDS011;15328;50.860;10.562;2023-12-07T23:52:15;14.48;;;4.47;;
27999;SDS011;15328;50.860;10.562;2023-12-07T23:57:16;7.93;;;3.67;;
